sensor_id;sensor_type;location;lat;lon;timestamp;temperature;humidity
29363;DHT22;16349;53.672;10.014;2024-03-07T00:00:16;4.20;99.90
29363;DHT22;16349;53.672;10.014;2024-03-07T00:02:44;4.30;99.90
29363;DHT22;16349;53.672;10.014;2024-03-07T00:05:13;4.30;99.90
29363;DHT22;16349;53.672;10.014;2024-03-07T00:07:40;4.30;99.90
29363;DHT22;16349;53.672;10.014;2024-03-07T00:10:08;4.40;99.90
29363;DHT22;16349;53.672;10.014;2024-03-07T00:12:37;4.40;99.90
29363;DHT22;16349;53.672;10.014;2024-03-07T00:15:06;4.40;99.90
29363;DHT22;16349;53.672;10.014;2024-03-07T00:17:33;4.40;99.90
29363;DHT22;16349;53.672;10.014;2024-03-07T00:20:01;4.40;99.90
29363;DHT22;16349;53.672;10.014;2024-03-07T00:22:29;4.50;99.90
29363;DHT22;16349;53.672;10.014;2024-03-07T00:24:57;4.40;99.90
29363;DHT22;16349;53.672;10.014;2024-03-07T00:27:24;4.50;99.90
29363;DHT22;16349;53.672;10.014;2024-03-07T00:29:53;4.50;99.90
29363;DHT22;16349;53.672;10.014;2024-03-07T00:32:20;4.50;99.90
29363;DHT22;16349;53.672;10.014;2024-03-07T00:34:48;4.50;99.90
29363;DHT22;16349;53.672;10.014;2024-03-07T00:37:14;4.50;99.90
29363;DHT22;16349;53.672;10.014;2024-03-07T00:39:42;4.50;99.90
29363;DHT22;16349;53.672;10.014;2024-03-07T00:42:09;4.50;99.90
29363;DHT22;16349;53.672;10.014;2024-03-07T00:44:36;4.60;99.90
29363;DHT22;16349;53.672;10.014;2024-03-07T00:47:04;4.60;99.90
29363;DHT22;16349;53.672;10.014;2024-03-07T00:49:31;4.60;99.90
29363;DHT22;16349;53.672;10.014;2024-03-07T00:51:58;4.60;99.90
29363;DHT22;16349;53.672;10.014;2024-03-07T00:54:25;4.60;99.90
29363;DHT22;16349;53.672;10.014;2024-03-07T00:56:52;4.60;99.90
29363;DHT22;16349;53.672;10.014;2024-03-07T00:59:19;4.60;99.90
29363;DHT22;16349;53.672;10.014;2024-03-07T01:01:46;4.60;99.90
29363;DHT22;16349;53.672;10.014;2024-03-07T01:04:16;4.60;99.90
29363;DHT22;16349;53.672;10.014;2024-03-07T01:06:43;4.60;99.90
29363;DHT22;16349;53.672;10.014;2024-03-07T01:09:10;4.60;99.90
29363;DHT22;16349;53.672;10.014;2024-03-07T01:11:40;4.60;99.90
29363;DHT22;16349;53.672;10.014;2024-03-07T01:14:07;4.60;99.90
29363;DHT22;16349;53.672;10.014;2024-03-07T01:16:34;4.70;99.90
29363;DHT22;16349;53.672;10.014;2024-03-07T01:19:01;4.60;99.90
29363;DHT22;16349;53.672;10.014;2024-03-07T01:21:32;4.70;99.90
29363;DHT22;16349;53.672;10.014;2024-03-07T01:23:59;4.70;99.90
29363;DHT22;16349;53.672;10.014;2024-03-07T01:26:27;4.60;99.90
29363;DHT22;16349;53.672;10.014;2024-03-07T01:28:54;4.60;99.90
29363;DHT22;16349;53.672;10.014;2024-03-07T01:31:22;4.60;99.90
29363;DHT22;16349;53.672;10.014;2024-03-07T01:33:50;4.60;99.90
29363;DHT22;16349;53.672;10.014;2024-03-07T01:36:17;4.60;99.90
29363;DHT22;16349;53.672;10.014;2024-03-07T01:38:45;4.70;99.90
29363;DHT22;16349;53.672;10.014;2024-03-07T01:41:12;4.60;99.90
29363;DHT22;16349;53.672;10.014;2024-03-07T01:43:40;4.70;99.90
29363;DHT22;16349;53.672;10.014;2024-03-07T01:46:07;4.70;99.90
29363;DHT22;16349;53.672;10.014;2024-03-07T01:48:34;4.70;99.90
29363;DHT22;16349;53.672;10.014;2024-03-07T01:51:02;4.70;99.90
29363;DHT22;16349;53.672;10.014;2024-03-07T01:53:30;4.70;99.90
29363;DHT22;16349;53.672;10.014;2024-03-07T01:55:59;4.70;99.90
29363;DHT22;16349;53.672;10.014;2024-03-07T01:58:26;4.70;99.90
29363;DHT22;16349;53.672;10.014;2024-03-07T02:00:53;4.60;99.90
29363;DHT22;16349;53.672;10.014;2024-03-07T02:03:20;4.60;99.90
29363;DHT22;16349;53.672;10.014;2024-03-07T02:05:48;4.60;99.90
29363;DHT22;16349;53.672;10.014;2024-03-07T02:08:16;4.60;99.90
29363;DHT22;16349;53.672;10.014;2024-03-07T02:10:43;4.60;99.90
29363;DHT22;16349;53.672;10.014;2024-03-07T02:13:11;4.60;99.90
29363;DHT22;16349;53.672;10.014;2024-03-07T02:15:38;4.60;99.90
29363;DHT22;16349;53.672;10.014;2024-03-07T02:18:05;4.60;99.90
29363;DHT22;16349;53.672;10.014;2024-03-07T02:20:32;4.60;99.90
29363;DHT22;16349;53.672;10.014;2024-03-07T02:23:00;4.60;99.90
29363;DHT22;16349;53.672;10.014;2024-03-07T02:25:28;4.60;99.90
29363;DHT22;16349;53.672;10.014;2024-03-07T02:27:55;4.60;99.90
29363;DHT22;16349;53.672;10.014;2024-03-07T02:30:22;4.60;99.90
29363;DHT22;16349;53.672;10.014;2024-03-07T02:32:49;4.60;99.90
29363;DHT22;16349;53.672;10.014;2024-03-07T02:35:20;4.60;99.90
29363;DHT22;16349;53.672;10.014;2024-03-07T02:37:47;4.60;99.90
29363;DHT22;16349;53.672;10.014;2024-03-07T02:40:15;4.60;99.90
29363;DHT22;16349;53.672;10.014;2024-03-07T02:42:42;4.60;99.90
29363;DHT22;16349;53.672;10.014;2024-03-07T02:45:09;4.60;99.90
29363;DHT22;16349;53.672;10.014;2024-03-07T02:47:40;4.50;99.90
29363;DHT22;16349;53.672;10.014;2024-03-07T02:50:10;4.50;99.90
29363;DHT22;16349;53.672;10.014;2024-03-07T02:52:37;4.50;99.90
29363;DHT22;16349;53.672;10.014;2024-03-07T02:55:05;4.50;99.90
29363;DHT22;16349;53.672;10.014;2024-03-07T02:57:33;4.50;99.90
29363;DHT22;16349;53.672;10.014;2024-03-07T03:00:01;4.50;99.90
29363;DHT22;16349;53.672;10.014;2024-03-07T03:02:28;4.50;99.90
29363;DHT22;16349;53.672;10.014;2024-03-07T03:04:55;4.50;99.90
29363;DHT22;16349;53.672;10.014;2024-03-07T03:07:22;4.50;99.90
29363;DHT22;16349;53.672;10.014;2024-03-07T03:09:49;4.50;99.90
29363;DHT22;16349;53.672;10.014;2024-03-07T03:12:15;4.40;99.90
29363;DHT22;16349;53.672;10.014;2024-03-07T03:14:44;4.40;99.90
29363;DHT22;16349;53.672;10.014;2024-03-07T03:17:10;4.40;99.90
29363;DHT22;16349;53.672;10.014;2024-03-07T03:19:37;4.40;99.90
29363;DHT22;16349;53.672;10.014;2024-03-07T03:22:04;4.40;99.90
29363;DHT22;16349;53.672;10.014;2024-03-07T03:24:31;4.40;99.90
29363;DHT22;16349;53.672;10.014;2024-03-07T03:26:58;4.30;99.90
29363;DHT22;16349;53.672;10.014;2024-03-07T03:29:25;4.30;99.90
29363;DHT22;16349;53.672;10.014;2024-03-07T03:31:56;4.20;99.90
29363;DHT22;16349;53.672;10.014;2024-03-07T03:34:22;4.20;99.90
29363;DHT22;16349;53.672;10.014;2024-03-07T03:36:49;4.20;99.90
29363;DHT22;16349;53.672;10.014;2024-03-07T03:39:16;4.20;99.90
29363;DHT22;16349;53.672;10.014;2024-03-07T03:41:46;4.20;99.90
29363;DHT22;16349;53.672;10.014;2024-03-07T03:44:13;4.10;99.90
29363;DHT22;16349;53.672;10.014;2024-03-07T03:46:40;4.10;99.90
29363;DHT22;16349;53.672;10.014;2024-03-07T03:49:08;4.10;99.90
29363;DHT22;16349;53.672;10.014;2024-03-07T03:51:35;4.00;99.90
29363;DHT22;16349;53.672;10.014;2024-03-07T03:54:02;4.00;99.90
29363;DHT22;16349;53.672;10.014;2024-03-07T03:56:29;4.00;99.90
29363;DHT22;16349;53.672;10.014;2024-03-07T03:58:57;4.00;99.90
29363;DHT22;16349;53.672;10.014;2024-03-07T04:01:24;4.00;99.90
29363;DHT22;16349;53.672;10.014;2024-03-07T04:03:51;3.90;99.90
29363;DHT22;16349;53.672;10.014;2024-03-07T04:06:19;3.90;99.90
29363;DHT22;16349;53.672;10.014;2024-03-07T04:08:46;3.80;99.90
29363;DHT22;16349;53.672;10.014;2024-03-07T04:11:13;3.80;99.90
29363;DHT22;16349;53.672;10.014;2024-03-07T04:13:39;3.80;99.90
29363;DHT22;16349;53.672;10.014;2024-03-07T04:16:06;3.80;99.90
29363;DHT22;16349;53.672;10.014;2024-03-07T04:18:34;3.70;99.90
29363;DHT22;16349;53.672;10.014;2024-03-07T04:21:00;3.60;99.90
29363;DHT22;16349;53.672;10.014;2024-03-07T04:23:29;3.60;99.90
29363;DHT22;16349;53.672;10.014;2024-03-07T04:25:55;3.50;99.90
29363;DHT22;16349;53.672;10.014;2024-03-07T04:28:22;3.50;99.90
29363;DHT22;16349;53.672;10.014;2024-03-07T04:30:49;3.50;99.90
29363;DHT22;16349;53.672;10.014;2024-03-07T04:33:18;3.50;99.90
29363;DHT22;16349;53.672;10.014;2024-03-07T04:35:46;3.50;99.90
29363;DHT22;16349;53.672;10.014;2024-03-07T04:38:13;3.50;99.90
29363;DHT22;16349;53.672;10.014;2024-03-07T04:40:42;3.40;99.90
29363;DHT22;16349;53.672;10.014;2024-03-07T04:43:09;3.40;99.90
29363;DHT22;16349;53.672;10.014;2024-03-07T04:45:36;3.30;99.90
29363;DHT22;16349;53.672;10.014;2024-03-07T04:48:03;3.30;99.90
29363;DHT22;16349;53.672;10.014;2024-03-07T04:50:31;3.30;99.90
29363;DHT22;16349;53.672;10.014;2024-03-07T04:52:58;3.20;99.90
29363;DHT22;16349;53.672;10.014;2024-03-07T04:55:24;3.20;99.90
29363;DHT22;16349;53.672;10.014;2024-03-07T04:57:52;3.20;99.90
29363;DHT22;16349;53.672;10.014;2024-03-07T05:00:19;3.20;99.90
29363;DHT22;16349;53.672;10.014;2024-03-07T05:02:49;3.20;99.90
29363;DHT22;16349;53.672;10.014;2024-03-07T05:05:16;3.20;99.90
29363;DHT22;16349;53.672;10.014;2024-03-07T05:07:48;3.20;99.90
29363;DHT22;16349;53.672;10.014;2024-03-07T05:10:16;3.10;99.90
29363;DHT22;16349;53.672;10.014;2024-03-07T05:12:43;3.00;99.90
29363;DHT22;16349;53.672;10.014;2024-03-07T05:15:11;3.00;99.90
29363;DHT22;16349;53.672;10.014;2024-03-07T05:17:38;2.90;99.90
29363;DHT22;16349;53.672;10.014;2024-03-07T05:20:08;2.90;99.90
29363;DHT22;16349;53.672;10.014;2024-03-07T05:22:38;2.90;99.90
29363;DHT22;16349;53.672;10.014;2024-03-07T05:25:07;2.90;99.90
29363;DHT22;16349;53.672;10.014;2024-03-07T05:27:34;2.90;99.90
29363;DHT22;16349;53.672;10.014;2024-03-07T05:30:02;2.90;99.90
29363;DHT22;16349;53.672;10.014;2024-03-07T05:32:32;2.90;99.90
29363;DHT22;16349;53.672;10.014;2024-03-07T05:34:59;2.90;99.90
29363;DHT22;16349;53.672;10.014;2024-03-07T05:37:26;2.90;99.90
29363;DHT22;16349;53.672;10.014;2024-03-07T05:39:53;2.90;99.90
29363;DHT22;16349;53.672;10.014;2024-03-07T05:42:20;2.90;99.90
29363;DHT22;16349;53.672;10.014;2024-03-07T05:44:47;2.90;99.90
29363;DHT22;16349;53.672;10.014;2024-03-07T05:47:14;2.90;99.90
29363;DHT22;16349;53.672;10.014;2024-03-07T05:49:43;2.90;99.90
29363;DHT22;16349;53.672;10.014;2024-03-07T05:52:10;2.90;99.90
29363;DHT22;16349;53.672;10.014;2024-03-07T05:54:37;2.90;99.90
29363;DHT22;16349;53.672;10.014;2024-03-07T05:57:04;2.90;99.90
29363;DHT22;16349;53.672;10.014;2024-03-07T05:59:32;2.80;99.90
29363;DHT22;16349;53.672;10.014;2024-03-07T06:01:59;2.80;99.90
29363;DHT22;16349;53.672;10.014;2024-03-07T06:04:26;2.80;99.90
29363;DHT22;16349;53.672;10.014;2024-03-07T06:06:54;2.80;99.90
29363;DHT22;16349;53.672;10.014;2024-03-07T06:09:21;2.70;99.90
29363;DHT22;16349;53.672;10.014;2024-03-07T06:11:48;2.70;99.90
29363;DHT22;16349;53.672;10.014;2024-03-07T06:14:16;2.70;99.90
29363;DHT22;16349;53.672;10.014;2024-03-07T06:16:43;2.70;99.90
29363;DHT22;16349;53.672;10.014;2024-03-07T06:19:11;2.70;99.90
29363;DHT22;16349;53.672;10.014;2024-03-07T06:21:39;2.70;99.90
29363;DHT22;16349;53.672;10.014;2024-03-07T06:24:07;2.70;99.90
29363;DHT22;16349;53.672;10.014;2024-03-07T06:26:37;2.70;99.90
29363;DHT22;16349;53.672;10.014;2024-03-07T06:29:12;2.70;99.90
29363;DHT22;16349;53.672;10.014;2024-03-07T06:31:40;2.70;99.90
29363;DHT22;16349;53.672;10.014;2024-03-07T06:34:07;2.70;99.90
29363;DHT22;16349;53.672;10.014;2024-03-07T06:36:34;2.80;99.90
29363;DHT22;16349;53.672;10.014;2024-03-07T06:39:01;2.80;99.90
29363;DHT22;16349;53.672;10.014;2024-03-07T06:41:32;2.80;99.90
29363;DHT22;16349;53.672;10.014;2024-03-07T06:43:59;2.80;99.90
29363;DHT22;16349;53.672;10.014;2024-03-07T06:46:25;2.80;99.90
29363;DHT22;16349;53.672;10.014;2024-03-07T06:48:52;2.90;99.90
29363;DHT22;16349;53.672;10.014;2024-03-07T06:51:19;2.90;99.90
29363;DHT22;16349;53.672;10.014;2024-03-07T06:53:46;2.90;99.90
29363;DHT22;16349;53.672;10.014;2024-03-07T06:56:13;2.90;99.90
29363;DHT22;16349;53.672;10.014;2024-03-07T06:58:41;2.90;99.90
29363;DHT22;16349;53.672;10.014;2024-03-07T07:01:09;2.90;99.90
29363;DHT22;16349;53.672;10.014;2024-03-07T07:03:37;2.90;99.90
29363;DHT22;16349;53.672;10.014;2024-03-07T07:06:05;3.00;99.90
29363;DHT22;16349;53.672;10.014;2024-03-07T07:08:32;3.00;99.90
29363;DHT22;16349;53.672;10.014;2024-03-07T07:10:59;3.00;99.90
29363;DHT22;16349;53.672;10.014;2024-03-07T07:13:26;3.00;99.90
29363;DHT22;16349;53.672;10.014;2024-03-07T07:15:54;3.00;99.90
29363;DHT22;16349;53.672;10.014;2024-03-07T07:18:22;3.00;99.90
29363;DHT22;16349;53.672;10.014;2024-03-07T07:20:49;3.10;99.90
29363;DHT22;16349;53.672;10.014;2024-03-07T07:23:17;3.10;99.90
29363;DHT22;16349;53.672;10.014;2024-03-07T07:25:44;3.20;99.90
29363;DHT22;16349;53.672;10.014;2024-03-07T07:28:11;3.20;99.90
29363;DHT22;16349;53.672;10.014;2024-03-07T07:30:39;3.20;99.90
29363;DHT22;16349;53.672;10.014;2024-03-07T07:33:07;3.30;99.90
29363;DHT22;16349;53.672;10.014;2024-03-07T07:35:34;3.30;99.90
29363;DHT22;16349;53.672;10.014;2024-03-07T07:38:01;3.30;99.90
29363;DHT22;16349;53.672;10.014;2024-03-07T07:40:27;3.30;99.90
29363;DHT22;16349;53.672;10.014;2024-03-07T07:42:56;3.30;99.90
29363;DHT22;16349;53.672;10.014;2024-03-07T07:45:24;3.40;99.90
29363;DHT22;16349;53.672;10.014;2024-03-07T07:47:52;3.40;99.90
29363;DHT22;16349;53.672;10.014;2024-03-07T07:50:21;3.40;99.90
29363;DHT22;16349;53.672;10.014;2024-03-07T07:52:49;3.40;99.90
29363;DHT22;16349;53.672;10.014;2024-03-07T07:55:17;3.40;99.90
29363;DHT22;16349;53.672;10.014;2024-03-07T07:57:46;3.50;99.90
29363;DHT22;16349;53.672;10.014;2024-03-07T08:00:14;3.50;99.90
29363;DHT22;16349;53.672;10.014;2024-03-07T08:02:49;3.60;99.90
29363;DHT22;16349;53.672;10.014;2024-03-07T08:05:17;3.70;99.90
29363;DHT22;16349;53.672;10.014;2024-03-07T08:07:47;3.70;99.90
29363;DHT22;16349;53.672;10.014;2024-03-07T08:10:14;3.70;99.90
29363;DHT22;16349;53.672;10.014;2024-03-07T08:12:42;3.60;99.90
29363;DHT22;16349;53.672;10.014;2024-03-07T08:15:09;3.70;99.90
29363;DHT22;16349;53.672;10.014;2024-03-07T08:17:42;3.70;99.90
29363;DHT22;16349;53.672;10.014;2024-03-07T08:20:13;3.70;99.90
29363;DHT22;16349;53.672;10.014;2024-03-07T08:22:41;3.80;99.90
29363;DHT22;16349;53.672;10.014;2024-03-07T08:25:10;3.80;99.90
29363;DHT22;16349;53.672;10.014;2024-03-07T08:27:38;3.80;99.90
29363;DHT22;16349;53.672;10.014;2024-03-07T08:30:07;3.90;99.90
29363;DHT22;16349;53.672;10.014;2024-03-07T08:32:38;3.90;99.90
29363;DHT22;16349;53.672;10.014;2024-03-07T08:35:07;3.90;99.90
29363;DHT22;16349;53.672;10.014;2024-03-07T08:37:36;3.90;99.90
29363;DHT22;16349;53.672;10.014;2024-03-07T08:40:03;4.00;99.90
29363;DHT22;16349;53.672;10.014;2024-03-07T08:42:34;4.00;99.90
29363;DHT22;16349;53.672;10.014;2024-03-07T08:45:01;4.00;99.90
29363;DHT22;16349;53.672;10.014;2024-03-07T08:47:30;4.10;99.90
29363;DHT22;16349;53.672;10.014;2024-03-07T08:49:57;4.10;99.90
29363;DHT22;16349;53.672;10.014;2024-03-07T08:52:23;4.10;99.90
29363;DHT22;16349;53.672;10.014;2024-03-07T08:54:50;4.20;99.90
29363;DHT22;16349;53.672;10.014;2024-03-07T08:57:17;4.10;99.90
29363;DHT22;16349;53.672;10.014;2024-03-07T08:59:46;4.10;99.90
29363;DHT22;16349;53.672;10.014;2024-03-07T09:02:14;4.00;99.90
29363;DHT22;16349;53.672;10.014;2024-03-07T09:04:41;3.90;99.90
29363;DHT22;16349;53.672;10.014;2024-03-07T09:07:09;4.00;99.90
29363;DHT22;16349;53.672;10.014;2024-03-07T09:09:36;4.00;99.90
29363;DHT22;16349;53.672;10.014;2024-03-07T09:12:03;4.00;99.90
29363;DHT22;16349;53.672;10.014;2024-03-07T09:14:31;3.90;99.90
29363;DHT22;16349;53.672;10.014;2024-03-07T09:16:59;3.90;99.90
29363;DHT22;16349;53.672;10.014;2024-03-07T09:19:26;3.90;99.90
29363;DHT22;16349;53.672;10.014;2024-03-07T09:21:54;3.90;99.90
29363;DHT22;16349;53.672;10.014;2024-03-07T09:24:21;3.80;99.90
29363;DHT22;16349;53.672;10.014;2024-03-07T09:26:48;3.80;99.90
29363;DHT22;16349;53.672;10.014;2024-03-07T09:29:15;3.70;99.90
29363;DHT22;16349;53.672;10.014;2024-03-07T09:31:43;3.70;99.90
29363;DHT22;16349;53.672;10.014;2024-03-07T09:34:12;3.80;99.90
29363;DHT22;16349;53.672;10.014;2024-03-07T09:36:40;3.80;99.90
29363;DHT22;16349;53.672;10.014;2024-03-07T09:39:07;3.70;99.90
29363;DHT22;16349;53.672;10.014;2024-03-07T09:41:35;3.80;99.90
29363;DHT22;16349;53.672;10.014;2024-03-07T09:44:02;3.80;99.90
29363;DHT22;16349;53.672;10.014;2024-03-07T09:46:30;3.80;99.90
29363;DHT22;16349;53.672;10.014;2024-03-07T09:48:58;3.80;99.90
29363;DHT22;16349;53.672;10.014;2024-03-07T09:51:27;3.80;99.90
29363;DHT22;16349;53.672;10.014;2024-03-07T09:53:56;3.80;99.90
29363;DHT22;16349;53.672;10.014;2024-03-07T09:56:25;3.80;99.90
29363;DHT22;16349;53.672;10.014;2024-03-07T09:58:55;3.70;99.90
29363;DHT22;16349;53.672;10.014;2024-03-07T10:01:26;3.80;99.90
29363;DHT22;16349;53.672;10.014;2024-03-07T10:03:58;3.80;99.90
29363;DHT22;16349;53.672;10.014;2024-03-07T10:06:28;3.90;99.90
29363;DHT22;16349;53.672;10.014;2024-03-07T10:08:56;3.90;99.90
29363;DHT22;16349;53.672;10.014;2024-03-07T10:11:24;4.00;99.90
29363;DHT22;16349;53.672;10.014;2024-03-07T10:13:52;3.90;99.90
29363;DHT22;16349;53.672;10.014;2024-03-07T10:16:19;3.90;99.90
29363;DHT22;16349;53.672;10.014;2024-03-07T10:18:46;3.90;99.90
29363;DHT22;16349;53.672;10.014;2024-03-07T10:21:18;3.90;99.90
29363;DHT22;16349;53.672;10.014;2024-03-07T10:23:47;4.00;99.90
29363;DHT22;16349;53.672;10.014;2024-03-07T10:26:15;4.10;99.90
29363;DHT22;16349;53.672;10.014;2024-03-07T10:28:43;4.10;99.90
29363;DHT22;16349;53.672;10.014;2024-03-07T10:31:10;4.10;99.90
29363;DHT22;16349;53.672;10.014;2024-03-07T10:33:40;4.20;99.90
29363;DHT22;16349;53.672;10.014;2024-03-07T10:36:10;4.20;99.90
29363;DHT22;16349;53.672;10.014;2024-03-07T10:38:39;4.30;99.90
29363;DHT22;16349;53.672;10.014;2024-03-07T10:41:08;4.30;99.90
29363;DHT22;16349;53.672;10.014;2024-03-07T10:43:37;4.40;99.90
29363;DHT22;16349;53.672;10.014;2024-03-07T10:46:10;4.50;99.90
29363;DHT22;16349;53.672;10.014;2024-03-07T10:48:39;4.60;99.90
29363;DHT22;16349;53.672;10.014;2024-03-07T10:51:10;4.70;99.90
29363;DHT22;16349;53.672;10.014;2024-03-07T10:53:57;4.80;99.90
29363;DHT22;16349;53.672;10.014;2024-03-07T10:56:33;4.90;99.90
29363;DHT22;16349;53.672;10.014;2024-03-07T10:59:10;5.00;99.90
29363;DHT22;16349;53.672;10.014;2024-03-07T11:01:47;5.00;99.90
29363;DHT22;16349;53.672;10.014;2024-03-07T11:04:16;5.10;99.90
29363;DHT22;16349;53.672;10.014;2024-03-07T11:06:43;5.10;99.90
29363;DHT22;16349;53.672;10.014;2024-03-07T11:09:11;5.20;99.90
29363;DHT22;16349;53.672;10.014;2024-03-07T11:11:41;5.30;99.90
29363;DHT22;16349;53.672;10.014;2024-03-07T11:14:10;5.30;99.90
29363;DHT22;16349;53.672;10.014;2024-03-07T11:16:39;5.40;99.90
29363;DHT22;16349;53.672;10.014;2024-03-07T11:19:25;5.40;99.90
29363;DHT22;16349;53.672;10.014;2024-03-07T11:21:53;5.50;99.90
29363;DHT22;16349;53.672;10.014;2024-03-07T11:24:25;5.50;99.90
29363;DHT22;16349;53.672;10.014;2024-03-07T11:26:56;5.50;99.90
29363;DHT22;16349;53.672;10.014;2024-03-07T11:29:40;5.50;99.90
29363;DHT22;16349;53.672;10.014;2024-03-07T11:32:09;5.50;99.90
29363;DHT22;16349;53.672;10.014;2024-03-07T11:34:38;5.60;99.90
29363;DHT22;16349;53.672;10.014;2024-03-07T11:37:07;5.60;99.90
29363;DHT22;16349;53.672;10.014;2024-03-07T11:39:44;5.60;99.90
29363;DHT22;16349;53.672;10.014;2024-03-07T11:42:26;5.70;99.90
29363;DHT22;16349;53.672;10.014;2024-03-07T11:44:54;5.80;99.90
29363;DHT22;16349;53.672;10.014;2024-03-07T11:47:23;5.70;99.90
29363;DHT22;16349;53.672;10.014;2024-03-07T11:49:51;5.80;99.90
29363;DHT22;16349;53.672;10.014;2024-03-07T11:52:18;5.90;99.90
29363;DHT22;16349;53.672;10.014;2024-03-07T11:54:46;5.90;99.90
29363;DHT22;16349;53.672;10.014;2024-03-07T11:57:14;5.90;99.90
29363;DHT22;16349;53.672;10.014;2024-03-07T11:59:43;5.90;99.90
29363;DHT22;16349;53.672;10.014;2024-03-07T12:02:13;5.90;99.90
29363;DHT22;16349;53.672;10.014;2024-03-07T12:04:41;6.00;99.90
29363;DHT22;16349;53.672;10.014;2024-03-07T12:07:08;6.10;99.90
29363;DHT22;16349;53.672;10.014;2024-03-07T12:09:37;6.10;99.90
29363;DHT22;16349;53.672;10.014;2024-03-07T12:12:05;6.10;99.90
29363;DHT22;16349;53.672;10.014;2024-03-07T12:14:32;6.10;99.90
29363;DHT22;16349;53.672;10.014;2024-03-07T12:17:01;6.10;99.90
29363;DHT22;16349;53.672;10.014;2024-03-07T12:19:31;6.20;99.90
29363;DHT22;16349;53.672;10.014;2024-03-07T12:22:00;6.20;99.90
29363;DHT22;16349;53.672;10.014;2024-03-07T12:24:28;6.20;99.90
29363;DHT22;16349;53.672;10.014;2024-03-07T12:27:05;6.30;99.90
29363;DHT22;16349;53.672;10.014;2024-03-07T12:29:32;6.20;99.90
29363;DHT22;16349;53.672;10.014;2024-03-07T12:32:01;6.20;99.90
29363;DHT22;16349;53.672;10.014;2024-03-07T12:34:28;6.30;99.90
29363;DHT22;16349;53.672;10.014;2024-03-07T12:36:56;6.30;99.90
29363;DHT22;16349;53.672;10.014;2024-03-07T12:39:23;6.40;99.90
29363;DHT22;16349;53.672;10.014;2024-03-07T12:41:58;6.40;99.90
29363;DHT22;16349;53.672;10.014;2024-03-07T12:44:25;6.40;99.90
29363;DHT22;16349;53.672;10.014;2024-03-07T12:46:53;6.40;99.90
29363;DHT22;16349;53.672;10.014;2024-03-07T12:49:23;6.50;99.90
29363;DHT22;16349;53.672;10.014;2024-03-07T12:51:53;6.60;99.90
29363;DHT22;16349;53.672;10.014;2024-03-07T12:54:20;6.60;99.90
29363;DHT22;16349;53.672;10.014;2024-03-07T12:56:47;6.60;99.90
29363;DHT22;16349;53.672;10.014;2024-03-07T12:59:15;6.60;99.90
29363;DHT22;16349;53.672;10.014;2024-03-07T13:01:42;6.60;99.90
29363;DHT22;16349;53.672;10.014;2024-03-07T13:04:11;6.60;99.90
29363;DHT22;16349;53.672;10.014;2024-03-07T13:06:39;6.70;99.90
29363;DHT22;16349;53.672;10.014;2024-03-07T13:09:09;6.70;99.90
29363;DHT22;16349;53.672;10.014;2024-03-07T13:11:37;6.70;99.90
29363;DHT22;16349;53.672;10.014;2024-03-07T13:14:06;6.70;99.90
29363;DHT22;16349;53.672;10.014;2024-03-07T13:16:34;6.70;99.90
29363;DHT22;16349;53.672;10.014;2024-03-07T13:19:01;6.70;99.90
29363;DHT22;16349;53.672;10.014;2024-03-07T13:21:30;6.70;99.90
29363;DHT22;16349;53.672;10.014;2024-03-07T13:23:58;6.70;99.90
29363;DHT22;16349;53.672;10.014;2024-03-07T13:26:26;6.80;99.90
29363;DHT22;16349;53.672;10.014;2024-03-07T13:28:56;6.90;99.90
29363;DHT22;16349;53.672;10.014;2024-03-07T13:31:26;6.90;99.90
29363;DHT22;16349;53.672;10.014;2024-03-07T13:33:54;7.10;99.90
29363;DHT22;16349;53.672;10.014;2024-03-07T13:36:21;7.20;99.90
29363;DHT22;16349;53.672;10.014;2024-03-07T13:38:52;7.30;99.90
29363;DHT22;16349;53.672;10.014;2024-03-07T13:41:22;7.40;99.90
29363;DHT22;16349;53.672;10.014;2024-03-07T13:43:51;7.60;99.90
29363;DHT22;16349;53.672;10.014;2024-03-07T13:46:19;7.70;99.90
29363;DHT22;16349;53.672;10.014;2024-03-07T13:48:47;7.90;99.90
29363;DHT22;16349;53.672;10.014;2024-03-07T13:51:13;8.00;99.90
29363;DHT22;16349;53.672;10.014;2024-03-07T13:53:42;8.00;99.90
29363;DHT22;16349;53.672;10.014;2024-03-07T13:56:50;8.00;99.90
29363;DHT22;16349;53.672;10.014;2024-03-07T13:59:54;8.50;99.90
29363;DHT22;16349;53.672;10.014;2024-03-07T14:02:48;8.80;99.90
29363;DHT22;16349;53.672;10.014;2024-03-07T14:05:52;9.10;99.90
29363;DHT22;16349;53.672;10.014;2024-03-07T14:11:51;9.20;99.90
29363;DHT22;16349;53.672;10.014;2024-03-07T14:14:49;9.30;99.90
29363;DHT22;16349;53.672;10.014;2024-03-07T14:17:54;9.10;99.90
29363;DHT22;16349;53.672;10.014;2024-03-07T14:20:50;9.20;99.90
29363;DHT22;16349;53.672;10.014;2024-03-07T14:23:33;9.60;99.90
29363;DHT22;16349;53.672;10.014;2024-03-07T14:26:37;10.00;99.90
29363;DHT22;16349;53.672;10.014;2024-03-07T14:29:20;10.40;99.90
29363;DHT22;16349;53.672;10.014;2024-03-07T14:31:49;10.80;99.90
29363;DHT22;16349;53.672;10.014;2024-03-07T14:34:24;11.10;99.90
29363;DHT22;16349;53.672;10.014;2024-03-07T14:37:04;11.30;99.90
29363;DHT22;16349;53.672;10.014;2024-03-07T14:39:32;11.30;99.90
29363;DHT22;16349;53.672;10.014;2024-03-07T14:42:02;11.60;99.90
29363;DHT22;16349;53.672;10.014;2024-03-07T14:44:37;11.70;99.90
29363;DHT22;16349;53.672;10.014;2024-03-07T14:47:06;11.70;99.90
29363;DHT22;16349;53.672;10.014;2024-03-07T14:49:37;11.70;99.90
29363;DHT22;16349;53.672;10.014;2024-03-07T14:52:05;11.90;99.90
29363;DHT22;16349;53.672;10.014;2024-03-07T14:54:36;11.80;99.90
29363;DHT22;16349;53.672;10.014;2024-03-07T14:57:04;11.50;99.90
29363;DHT22;16349;53.672;10.014;2024-03-07T14:59:31;11.20;99.90
29363;DHT22;16349;53.672;10.014;2024-03-07T15:01:59;11.40;99.90
29363;DHT22;16349;53.672;10.014;2024-03-07T15:04:30;11.60;99.90
29363;DHT22;16349;53.672;10.014;2024-03-07T15:06:58;11.50;99.90
29363;DHT22;16349;53.672;10.014;2024-03-07T15:09:28;11.20;99.90
29363;DHT22;16349;53.672;10.014;2024-03-07T15:11:56;10.70;99.90
29363;DHT22;16349;53.672;10.014;2024-03-07T15:14:23;10.40;99.90
29363;DHT22;16349;53.672;10.014;2024-03-07T15:16:50;10.60;99.90
29363;DHT22;16349;53.672;10.014;2024-03-07T15:19:18;11.10;99.90
29363;DHT22;16349;53.672;10.014;2024-03-07T15:21:45;11.30;99.90
29363;DHT22;16349;53.672;10.014;2024-03-07T15:24:13;11.50;99.90
29363;DHT22;16349;53.672;10.014;2024-03-07T15:26:43;11.60;99.90
29363;DHT22;16349;53.672;10.014;2024-03-07T15:29:10;11.90;99.90
29363;DHT22;16349;53.672;10.014;2024-03-07T15:31:37;12.00;99.90
29363;DHT22;16349;53.672;10.014;2024-03-07T15:34:05;12.00;99.90
29363;DHT22;16349;53.672;10.014;2024-03-07T15:36:35;11.80;99.90
29363;DHT22;16349;53.672;10.014;2024-03-07T15:39:02;11.70;99.90
29363;DHT22;16349;53.672;10.014;2024-03-07T15:41:45;11.40;99.90
29363;DHT22;16349;53.672;10.014;2024-03-07T15:44:11;11.20;99.90